Aviation Digital Data Service (ADDS)

Output produced by METARs form (0050 UTC 20 April 2019)
found at http://www.aviationweather.gov/metar/data/
 
Forecast for: OEMA (MADINAH INTL ARP, SA)
Text: TAF OEMA 192300Z 2000/2106 VRB03KT CAVOK
Forecast period: 0000 to 1000 UTC 20 April 2019
Forecast type: FROM: standard forecast or significant change
Winds: variable direction winds at 3 MPH (3 knots; 1.5 m/s)
Visibility: 6 or more miles 10+ km)
Ceiling: unknown
Clouds: missing
Weather: NSW  (no significant weather)
Text: BECMG 2010/2012 30012KT
Forecast period: 1000 UTC 20 April 2019 to 0600 UTC 21 April 2019
Forecast type: BECOMING: Conditions expected to become as follows by 1200 UTC 20 April 2019
Winds: from the WNW (300 degrees) at 14 MPH (12 knots; 6.2 m/s)
Visibility: 6 or more miles 10+ km)
Ceiling: unknown
Clouds: missing
Weather: NSW  (no significant weather)